createdAt,value
2023-03-18T00:06:36.523Z,4.70
2023-03-18T00:26:36.516Z,4.60
2023-03-18T00:46:36.533Z,4.44
2023-03-18T01:06:36.478Z,4.22
2023-03-18T01:26:36.475Z,4.10
2023-03-18T01:46:36.467Z,4.11
2023-03-18T02:46:36.446Z,3.65
2023-03-18T03:06:36.420Z,3.47
2023-03-18T03:26:36.432Z,3.59
2023-03-18T03:46:36.402Z,3.59
2023-03-18T04:06:36.392Z,3.67
2023-03-18T04:26:36.389Z,3.59
2023-03-18T05:26:36.445Z,3.57
2023-03-18T06:06:36.438Z,3.60
2023-03-18T06:26:36.321Z,3.59
2023-03-18T06:46:36.319Z,3.93
2023-03-18T07:06:36.362Z,4.24
2023-03-18T08:06:36.406Z,5.45
2023-03-18T08:26:36.260Z,5.86
2023-03-18T08:46:36.246Z,6.14
2023-03-18T09:06:36.340Z,6.43
2023-03-18T09:26:36.365Z,7.71
2023-03-18T09:46:36.215Z,8.70
2023-03-18T10:06:36.202Z,9.52
2023-03-18T10:26:36.174Z,10.73
2023-03-18T10:46:36.160Z,11.39
2023-03-18T11:06:36.232Z,11.75
2023-03-18T11:26:36.108Z,12.74
2023-03-18T11:46:36.084Z,13.92
2023-03-18T12:06:36.056Z,14.50
2023-03-18T12:26:36.039Z,15.02
2023-03-18T12:46:36.078Z,15.89
2023-03-18T13:06:35.987Z,16.42
2023-03-18T13:26:35.956Z,16.54
2023-03-18T13:46:35.991Z,16.59
2023-03-18T14:06:35.968Z,16.67
2023-03-18T14:26:36.036Z,16.68
2023-03-18T14:46:35.873Z,16.31
2023-03-18T15:06:35.934Z,15.80
2023-03-18T15:26:35.873Z,15.38
2023-03-18T16:06:35.746Z,14.78
2023-03-18T16:26:35.719Z,14.44
2023-03-18T16:46:35.700Z,14.05
2023-03-18T17:06:35.687Z,13.59
2023-03-18T17:46:35.647Z,12.27
2023-03-18T18:06:35.690Z,11.75
2023-03-18T18:26:35.570Z,11.31
2023-03-18T18:46:35.669Z,10.80
2023-03-18T19:06:35.625Z,10.35
2023-03-18T19:26:42.573Z,9.89
2023-03-18T19:46:35.625Z,9.48
2023-03-18T20:06:35.460Z,9.05
2023-03-18T20:26:35.494Z,8.74
2023-03-18T20:46:35.418Z,8.39
2023-03-18T21:06:42.580Z,8.04
2023-03-18T21:26:35.412Z,7.74
2023-03-18T21:46:35.434Z,7.48
2023-03-18T22:06:35.363Z,7.25
2023-03-18T22:26:35.378Z,7.01
2023-03-18T22:46:35.379Z,6.94
2023-03-18T23:26:35.377Z,6.58
2023-03-18T23:46:35.281Z,6.45
